Malibu — ZCGB — position and weather

sailwx.info

Track history (hours):
 
Tides and Currents Weather Stations Pressure Air Temp Water Temp Dewpoint Dewpoint Depression Visibility Wind Speed Wind Dir Waves Ship Positions

Malibu

Last reported at 2016-May-03 02:33 UTC. Time now 2016-May-03 03:06 UTC.
Position N 43°31' E 009°40'.

Length 50 m; draft 3.4 m.

Type: Pleasure craft. MMSI: 319663000.

Date/timePositionNaut miles runAvg speedWind from/ knotsBaromVisibWave heightAir tempDewpointWater temp
2016-May-03 02:33N 43°31' E 009°40'1111.3
2016-May-03 01:33N 43°42' E 009°34'1111.2
2016-May-03 00:33N 43°52' E 009°29'1111.3
2016-May-02 23:33N 44°02' E 009°23'1111.1
2016-May-02 22:33N 44°13' E 009°17'6 5.5
2016-May-02 21:25N 44°18' E 009°13'0 0.0
2016-May-02 17:07N 44°18' E 009°13'0 0.1
2016-May-02 16:25N 44°18' E 009°13'0 0.0
2016-May-02 15:28N 44°18' E 009°13'0 0.0
2016-May-02 14:22N 44°18' E 009°13'0 0.0
2016-May-02 12:10N 44°18' E 009°13'0 0.0
2016-May-02 11:31N 44°18' E 009°13'0 0.0
2016-May-02 10:19N 44°18' E 009°13'0 0.1
2016-May-02 09:19N 44°18' E 009°14'0 0.0
2016-May-02 07:29N 44°18' E 009°14'910.1
2016-May-02 06:33N 44°12' E 009°23'1212.1
2016-May-02 05:33N 44°05' E 009°37'1111.3
2016-May-02 04:34N 44°01' E 009°52'2 1.9
2016-May-02 03:33N 44°03' E 009°51'0 0.0
2016-May-02 02:33N 44°03' E 009°51'0 0.0
2016-May-02 01:33N 44°03' E 009°51'0 0.0
2016-May-02 00:33N 44°03' E 009°51'0 0.0
2016-May-01 23:33N 44°03' E 009°51'0 0.0
2016-May-01 22:33N 44°03' E 009°51'0 0.0
2016-May-01 21:33N 44°03' E 009°51'0 0.0
2016-May-01 20:33N 44°03' E 009°51'0 0.0
2016-May-01 19:33N 44°03' E 009°51'0 0.0
2016-May-01 18:33N 44°03' E 009°51'0 0.0
2016-May-01 17:30N 44°03' E 009°51'0 0.0
2016-May-01 16:33N 44°03' E 009°51'0 0.0
2016-May-01 15:33N 44°03' E 009°51'0 0.0
2016-May-01 14:33N 44°03' E 009°51'0 0.0
2016-May-01 13:33N 44°03' E 009°51'0 0.0
2016-May-01 12:33N 44°03' E 009°51'0 0.0
2016-May-01 11:33N 44°03' E 009°51'0 0.0
2016-May-01 10:33N 44°03' E 009°51'0 0.0
2016-May-01 09:33N 44°03' E 009°51'0 0.0
2016-May-01 08:33N 44°03' E 009°51'0 0.0
2016-May-01 07:33N 44°03' E 009°51'0 0.0
2016-May-01 06:30N 44°03' E 009°51'0 0.0
2016-May-01 05:33N 44°03' E 009°51'0 0.0
2016-May-01 04:33N 44°03' E 009°51'0 0.0
2016-May-01 03:33N 44°03' E 009°51'0 0.0
2016-May-01 02:33N 44°03' E 009°51'0 0.0
2016-May-01 01:33N 44°03' E 009°51'0 0.0
2016-May-01 00:33N 44°03' E 009°51'0 0.0
2016-Apr-30 23:33N 44°03' E 009°51'0 0.0
2016-Apr-30 22:33N 44°03' E 009°51'6 6.0
2016-Apr-30 21:34N 43°59' E 009°58'1111.5
2016-Apr-30 20:33N 43°50' E 010°07'1111.0
2016-Apr-30 19:33N 43°41' E 010°15'1 0.7
2016-Apr-30 18:34N 43°41' E 010°16'8 8.1
2016-Apr-30 17:33N 43°48' E 010°13'4 3.5
2016-Apr-30 16:32N 43°52' E 010°14'0 0.0
2016-Apr-30 15:32N 43°52' E 010°14'0 0.0
2016-Apr-30 14:32N 43°52' E 010°14'0 0.0
2016-Apr-30 13:29N 43°52' E 010°14'0 0.0
2016-Apr-30 12:32N 43°52' E 010°14'0 0.0
2016-Apr-30 11:32N 43°52' E 010°14'0 0.0
2016-Apr-30 10:29N 43°52' E 010°14'0 0.0
2016-Apr-30 09:29N 43°52' E 010°14'0 0.0
2016-Apr-30 08:32N 43°52' E 010°14'0 0.0
2016-Apr-30 07:32N 43°52' E 010°14'0 0.0
2016-Apr-30 06:32N 43°52' E 010°14'0 0.0
2016-Apr-30 05:32N 43°52' E 010°14'0 0.0
2016-Apr-30 04:32N 43°52' E 010°14'0 0.0
2016-Apr-30 03:29N 43°52' E 010°14'0 0.0
2016-Apr-30 02:29N 43°52' E 010°14'0 0.0
2016-Apr-30 01:32N 43°52' E 010°14'0 0.0
2016-Apr-30 00:32N 43°52' E 010°14'0 0.0
2016-Apr-29 23:32N 43°52' E 010°14'0 0.0
2016-Apr-29 22:32N 43°52' E 010°14'0 0.0
2016-Apr-29 21:32N 43°52' E 010°14'0 0.0
2016-Apr-29 20:32N 43°52' E 010°14'0 0.0
2016-Apr-29 19:32N 43°52' E 010°14'0 0.0
2016-Apr-29 18:32N 43°52' E 010°14'0 0.0
2016-Apr-29 17:32N 43°52' E 010°14'0 0.0
2016-Apr-29 16:32N 43°52' E 010°14'0 0.0
2016-Apr-29 15:29N 43°52' E 010°14'0 0.0
2016-Apr-29 14:29N 43°52' E 010°14'0 0.0
2016-Apr-29 13:29N 43°52' E 010°14'0 0.0
2016-Apr-29 12:32N 43°52' E 010°14'0 0.0
2016-Apr-29 11:32N 43°52' E 010°14'0 0.0
2016-Apr-29 10:29N 43°52' E 010°14'0 0.0
2016-Apr-29 09:32N 43°52' E 010°14'0 0.0
2016-Apr-29 08:32N 43°52' E 010°14'0 0.0
2016-Apr-29 07:32N 43°52' E 010°14'0 0.0
2016-Apr-29 06:32N 43°52' E 010°14'0 0.0
2016-Apr-29 05:29N 43°52' E 010°14'0 0.0
2016-Apr-29 04:32N 43°52' E 010°14'0 0.0
2016-Apr-29 03:32N 43°52' E 010°14'0 0.0
2016-Apr-29 02:32N 43°52' E 010°14'0 0.0
2016-Apr-29 01:32N 43°52' E 010°14'0 0.0
2016-Apr-29 00:32N 43°52' E 010°14'0 0.0
2016-Apr-28 23:32N 43°52' E 010°14'0 0.0
2016-Apr-28 22:32N 43°52' E 010°14'0 0.0
2016-Apr-28 21:32N 43°52' E 010°14'0 0.0
2016-Apr-28 20:32N 43°52' E 010°14'0 0.0
2016-Apr-28 19:29N 43°52' E 010°14'0 0.0
2016-Apr-28 18:29N 43°52' E 010°14'0 0.0
2016-Apr-28 17:29N 43°52' E 010°14'0 0.0
2016-Apr-28 16:34N 43°52' E 010°14'4 4.5
2016-Apr-28 15:34N 43°52' E 010°08'1211.9
2016-Apr-28 14:33N 43°54' E 009°52'1211.6
2016-Apr-28 13:33N 43°57' E 009°36'1211.5
2016-Apr-28 12:33N 44°04' E 009°23'1111.3
2016-Apr-28 11:33N 44°10' E 009°10'1111.3
2016-Apr-28 10:33N 44°19' E 008°60'6 6.4
2016-Apr-28 09:33N 44°24' E 008°55'0 0.2
2016-Apr-28 08:28N 44°25' E 008°55'0 0.0
2016-Apr-28 07:28N 44°25' E 008°55'0 0.0
2016-Apr-28 06:31N 44°25' E 008°55'0 0.0
2016-Apr-28 05:31N 44°25' E 008°55'0 0.0
2016-Apr-28 04:31N 44°25' E 008°55'0 0.0
2016-Apr-28 03:28N 44°25' E 008°55'0 0.0
2016-Apr-28 02:28N 44°25' E 008°55'0 0.0
2016-Apr-28 01:31N 44°25' E 008°55'0 0.0
2016-Apr-28 00:25N 44°25' E 008°55'0 0.0
2016-Apr-27 23:31N 44°25' E 008°55'0 0.0
2016-Apr-27 22:25N 44°25' E 008°55'0 0.0
2016-Apr-27 21:28N 44°25' E 008°55'0 0.0
2016-Apr-27 20:28N 44°25' E 008°55'0 0.0
2016-Apr-27 19:31N 44°25' E 008°55'0 0.0
2016-Apr-27 18:31N 44°25' E 008°55'0 0.0
2016-Apr-27 17:31N 44°25' E 008°55'0 0.0
2016-Apr-27 16:28N 44°25' E 008°55'0 0.0
2016-Apr-27 15:22N 44°25' E 008°55'0 0.0
2016-Apr-27 14:28N 44°25' E 008°55'0 0.0
2016-Apr-27 13:16N 44°25' E 008°55'0 0.0
2016-Apr-27 12:28N 44°25' E 008°55'0 0.0
2016-Apr-27 11:28N 44°25' E 008°55'0 0.0
2016-Apr-27 10:28N 44°25' E 008°55'0 0.0
2016-Apr-27 09:28N 44°25' E 008°55'0 0.0
2016-Apr-27 08:28N 44°25' E 008°55'0 0.0
2016-Apr-27 07:22N 44°25' E 008°55'0 0.0
2016-Apr-27 06:28N 44°25' E 008°55'0 0.0
2016-Apr-27 05:28N 44°25' E 008°55'0 0.0
2016-Apr-27 04:28N 44°25' E 008°55'0 0.0
2016-Apr-27 03:31N 44°25' E 008°55'0 0.0
2016-Apr-27 02:31N 44°25' E 008°55'0 0.0
2016-Apr-27 01:19N 44°25' E 008°55'0 0.0
2016-Apr-27 00:07N 44°25' E 008°55'0 0.0
2016-Apr-26 23:28N 44°25' E 008°55'0 0.0
2016-Apr-26 22:25N 44°25' E 008°55'0 0.0
2016-Apr-26 21:31N 44°25' E 008°55'0 0.0
2016-Apr-26 20:25N 44°25' E 008°55'0 0.0
2016-Apr-26 19:28N 44°25' E 008°55'0 0.0
2016-Apr-26 18:28N 44°25' E 008°55'0 0.0
2016-Apr-26 16:31N 44°25' E 008°55'0 0.0
2016-Apr-26 15:31N 44°25' E 008°55'0 0.0
2016-Apr-26 14:31N 44°25' E 008°55'0 0.0
2016-Apr-26 13:31N 44°25' E 008°55'0 0.0
2016-Apr-26 12:28N 44°25' E 008°55'0 0.0
2016-Apr-26 11:25N 44°25' E 008°55'0 0.0
2016-Apr-26 10:31N 44°25' E 008°55'0 0.0
2016-Apr-26 09:19N 44°25' E 008°55'0 0.0
2016-Apr-26 08:28N 44°25' E 008°55'0 0.0
2016-Apr-26 07:28N 44°25' E 008°55'0 0.0
2016-Apr-26 06:28N 44°25' E 008°55'0 0.0
2016-Apr-26 05:31N 44°25' E 008°55'0 0.0
2016-Apr-26 04:25N 44°25' E 008°55'0 0.0
2016-Apr-26 03:31N 44°25' E 008°55'0 0.0
2016-Apr-26 02:22N 44°25' E 008°55'0 0.0
2016-Apr-26 01:28N 44°25' E 008°55'0 0.0
2016-Apr-26 00:22N 44°25' E 008°55'0 0.0
2016-Apr-25 23:19N 44°25' E 008°55'0 0.0
2016-Apr-25 22:25N 44°25' E 008°55'0 0.0
2016-Apr-25 21:13N 44°25' E 008°55'0 0.0
2016-Apr-25 20:22N 44°25' E 008°55'0 0.0
2016-Apr-25 19:10N 44°25' E 008°55'0 0.0
2016-Apr-25 18:31N 44°25' E 008°55'0 0.0
2016-Apr-25 17:25N 44°25' E 008°55'0 0.0
2016-Apr-25 16:31N 44°25' E 008°55'0 0.0
2016-Apr-25 15:25N 44°25' E 008°55'0 0.0
2016-Apr-25 14:13N 44°25' E 008°55'0 0.0
2016-Apr-25 13:28N 44°25' E 008°55'0 0.0
2016-Apr-25 12:31N 44°25' E 008°55'0 0.0
2016-Apr-25 11:31N 44°25' E 008°55'0 0.0
2016-Apr-25 10:25N 44°25' E 008°55'0 0.0
2016-Apr-25 09:13N 44°25' E 008°55'0 0.0
2016-Apr-25 08:16N 44°25' E 008°55'0 0.0
2016-Apr-25 07:22N 44°25' E 008°55'0 0.0
2016-Apr-25 06:22N 44°25' E 008°55'0 0.0
2016-Apr-25 05:31N 44°25' E 008°55'0 0.0
2016-Apr-25 04:19N 44°25' E 008°55'0 0.0
2016-Apr-25 03:25N 44°25' E 008°55'0 0.0
2016-Apr-25 02:28N 44°25' E 008°55'0 0.0
2016-Apr-25 01:28N 44°25' E 008°55'0 0.0
2016-Apr-25 00:28N 44°25' E 008°55'0 0.0
2016-Apr-24 23:31N 44°25' E 008°55'0 0.0
2016-Apr-24 22:25N 44°25' E 008°55'0 0.0
2016-Apr-24 21:19N 44°25' E 008°55'0 0.0
2016-Apr-24 20:28N 44°25' E 008°55'0 0.0
2016-Apr-24 19:28N 44°25' E 008°55'0 0.0
2016-Apr-24 18:31N 44°25' E 008°55'0 0.0
2016-Apr-24 17:28N 44°25' E 008°55'0 0.0
2016-Apr-24 16:28N 44°25' E 008°55'0 0.0
2016-Apr-24 15:28N 44°25' E 008°55'0 0.0
2016-Apr-24 14:22N 44°25' E 008°55'0 0.0
2016-Apr-24 13:28N 44°25' E 008°55'0 0.0
2016-Apr-24 12:28N 44°25' E 008°55'0 0.0
2016-Apr-24 11:28N 44°25' E 008°55'0 0.0
2016-Apr-24 10:28N 44°25' E 008°55'0 0.0
2016-Apr-24 09:28N 44°25' E 008°55'0 0.0
2016-Apr-24 08:28N 44°25' E 008°55'0 0.0
2016-Apr-24 07:28N 44°25' E 008°55'0 0.0
2016-Apr-24 06:28N 44°25' E 008°55'0 0.0
2016-Apr-24 04:28N 44°25' E 008°55'0 0.0
2016-Apr-24 03:28N 44°25' E 008°55'0 0.0
2016-Apr-24 02:28N 44°25' E 008°55'0 0.0
2016-Apr-24 01:31N 44°25' E 008°55'0 0.0
2016-Apr-24 00:31N 44°25' E 008°55'0 0.0
2016-Apr-23 23:25N 44°25' E 008°55'0 0.0
2016-Apr-23 22:28N 44°25' E 008°55'0 0.0
2016-Apr-23 21:28N 44°25' E 008°55'0 0.0
2016-Apr-23 20:31N 44°25' E 008°55'0 0.0
2016-Apr-23 19:31N 44°25' E 008°55'0 0.0
2016-Apr-23 18:31N 44°25' E 008°55'0 0.0
2016-Apr-23 17:22N 44°25' E 008°55'0 0.0
2016-Apr-23 16:28N 44°25' E 008°55'0 0.0
2016-Apr-23 15:16N 44°25' E 008°55'0 0.0
2016-Apr-23 14:28N 44°25' E 008°55'0 0.0
2016-Apr-23 13:22N 44°25' E 008°55'0 0.0
2016-Apr-23 12:28N 44°25' E 008°55'0 0.0
2016-Apr-23 11:28N 44°25' E 008°55'0 0.0
2016-Apr-23 10:22N 44°25' E 008°55'0 0.0
2016-Apr-23 09:28N 44°25' E 008°55'0 0.0
2016-Apr-23 08:28N 44°25' E 008°55'0 0.0
2016-Apr-23 07:22N 44°25' E 008°55'0 0.0
2016-Apr-23 06:22N 44°25' E 008°55'0 0.0
2016-Apr-23 04:28N 44°25' E 008°55'0 0.0
2016-Apr-23 03:22N 44°25' E 008°55'  
Track history (hours):
 
Tides and Currents Weather Stations Pressure Air Temp Water Temp Dewpoint Dewpoint Depression Visibility Wind Speed Wind Dir Waves Ship Positions

Malibu

Last reported at 2016-May-03 02:33 UTC. Time now 2016-May-03 03:06 UTC.
Position N 43°31' E 009°40'.

Length 50 m; draft 3.4 m.

Type: Pleasure craft. MMSI: 319663000.

Date/timePositionNaut miles runAvg speedWind from/ knotsBaromVisibWave heightAir tempDewpointWater temp
2016-May-03 02:33N 43°31' E 009°40'1111.3
2016-May-03 01:33N 43°42' E 009°34'1111.2
2016-May-03 00:33N 43°52' E 009°29'1111.3
2016-May-02 23:33N 44°02' E 009°23'1111.1
2016-May-02 22:33N 44°13' E 009°17'6 5.5
2016-May-02 21:25N 44°18' E 009°13'0 0.0
2016-May-02 17:07N 44°18' E 009°13'0 0.1
2016-May-02 16:25N 44°18' E 009°13'0 0.0
2016-May-02 15:28N 44°18' E 009°13'0 0.0
2016-May-02 14:22N 44°18' E 009°13'0 0.0
2016-May-02 12:10N 44°18' E 009°13'0 0.0
2016-May-02 11:31N 44°18' E 009°13'0 0.0
2016-May-02 10:19N 44°18' E 009°13'0 0.1
2016-May-02 09:19N 44°18' E 009°14'0 0.0
2016-May-02 07:29N 44°18' E 009°14'910.1
2016-May-02 06:33N 44°12' E 009°23'1212.1
2016-May-02 05:33N 44°05' E 009°37'1111.3
2016-May-02 04:34N 44°01' E 009°52'2 1.9
2016-May-02 03:33N 44°03' E 009°51'0 0.0
2016-May-02 02:33N 44°03' E 009°51'0 0.0
2016-May-02 01:33N 44°03' E 009°51'0 0.0
2016-May-02 00:33N 44°03' E 009°51'0 0.0
2016-May-01 23:33N 44°03' E 009°51'0 0.0
2016-May-01 22:33N 44°03' E 009°51'0 0.0
2016-May-01 21:33N 44°03' E 009°51'0 0.0
2016-May-01 20:33N 44°03' E 009°51'0 0.0
2016-May-01 19:33N 44°03' E 009°51'0 0.0
2016-May-01 18:33N 44°03' E 009°51'0 0.0
2016-May-01 17:30N 44°03' E 009°51'0 0.0
2016-May-01 16:33N 44°03' E 009°51'0 0.0
2016-May-01 15:33N 44°03' E 009°51'0 0.0
2016-May-01 14:33N 44°03' E 009°51'0 0.0
2016-May-01 13:33N 44°03' E 009°51'0 0.0
2016-May-01 12:33N 44°03' E 009°51'0 0.0
2016-May-01 11:33N 44°03' E 009°51'0 0.0
2016-May-01 10:33N 44°03' E 009°51'0 0.0
2016-May-01 09:33N 44°03' E 009°51'0 0.0
2016-May-01 08:33N 44°03' E 009°51'0 0.0
2016-May-01 07:33N 44°03' E 009°51'0 0.0
2016-May-01 06:30N 44°03' E 009°51'0 0.0
2016-May-01 05:33N 44°03' E 009°51'0 0.0
2016-May-01 04:33N 44°03' E 009°51'0 0.0
2016-May-01 03:33N 44°03' E 009°51'0 0.0
2016-May-01 02:33N 44°03' E 009°51'0 0.0
2016-May-01 01:33N 44°03' E 009°51'0 0.0
2016-May-01 00:33N 44°03' E 009°51'0 0.0
2016-Apr-30 23:33N 44°03' E 009°51'0 0.0
2016-Apr-30 22:33N 44°03' E 009°51'6 6.0
2016-Apr-30 21:34N 43°59' E 009°58'1111.5
2016-Apr-30 20:33N 43°50' E 010°07'1111.0
2016-Apr-30 19:33N 43°41' E 010°15'1 0.7
2016-Apr-30 18:34N 43°41' E 010°16'8 8.1
2016-Apr-30 17:33N 43°48' E 010°13'4 3.5
2016-Apr-30 16:32N 43°52' E 010°14'0 0.0
2016-Apr-30 15:32N 43°52' E 010°14'0 0.0
2016-Apr-30 14:32N 43°52' E 010°14'0 0.0
2016-Apr-30 13:29N 43°52' E 010°14'0 0.0
2016-Apr-30 12:32N 43°52' E 010°14'0 0.0
2016-Apr-30 11:32N 43°52' E 010°14'0 0.0
2016-Apr-30 10:29N 43°52' E 010°14'0 0.0
2016-Apr-30 09:29N 43°52' E 010°14'0 0.0
2016-Apr-30 08:32N 43°52' E 010°14'0 0.0
2016-Apr-30 07:32N 43°52' E 010°14'0 0.0
2016-Apr-30 06:32N 43°52' E 010°14'0 0.0
2016-Apr-30 05:32N 43°52' E 010°14'0 0.0
2016-Apr-30 04:32N 43°52' E 010°14'0 0.0
2016-Apr-30 03:29N 43°52' E 010°14'0 0.0
2016-Apr-30 02:29N 43°52' E 010°14'0 0.0
2016-Apr-30 01:32N 43°52' E 010°14'0 0.0
2016-Apr-30 00:32N 43°52' E 010°14'0 0.0
2016-Apr-29 23:32N 43°52' E 010°14'0 0.0
2016-Apr-29 22:32N 43°52' E 010°14'0 0.0
2016-Apr-29 21:32N 43°52' E 010°14'0 0.0
2016-Apr-29 20:32N 43°52' E 010°14'0 0.0
2016-Apr-29 19:32N 43°52' E 010°14'0 0.0
2016-Apr-29 18:32N 43°52' E 010°14'0 0.0
2016-Apr-29 17:32N 43°52' E 010°14'0 0.0
2016-Apr-29 16:32N 43°52' E 010°14'0 0.0
2016-Apr-29 15:29N 43°52' E 010°14'0 0.0
2016-Apr-29 14:29N 43°52' E 010°14'0 0.0
2016-Apr-29 13:29N 43°52' E 010°14'0 0.0
2016-Apr-29 12:32N 43°52' E 010°14'0 0.0
2016-Apr-29 11:32N 43°52' E 010°14'0 0.0
2016-Apr-29 10:29N 43°52' E 010°14'0 0.0
2016-Apr-29 09:32N 43°52' E 010°14'0 0.0
2016-Apr-29 08:32N 43°52' E 010°14'0 0.0
2016-Apr-29 07:32N 43°52' E 010°14'0 0.0
2016-Apr-29 06:32N 43°52' E 010°14'0 0.0
2016-Apr-29 05:29N 43°52' E 010°14'0 0.0
2016-Apr-29 04:32N 43°52' E 010°14'0 0.0
2016-Apr-29 03:32N 43°52' E 010°14'0 0.0
2016-Apr-29 02:32N 43°52' E 010°14'0 0.0
2016-Apr-29 01:32N 43°52' E 010°14'0 0.0
2016-Apr-29 00:32N 43°52' E 010°14'0 0.0
2016-Apr-28 23:32N 43°52' E 010°14'0 0.0
2016-Apr-28 22:32N 43°52' E 010°14'0 0.0
2016-Apr-28 21:32N 43°52' E 010°14'0 0.0
2016-Apr-28 20:32N 43°52' E 010°14'0 0.0
2016-Apr-28 19:29N 43°52' E 010°14'0 0.0
2016-Apr-28 18:29N 43°52' E 010°14'0 0.0
2016-Apr-28 17:29N 43°52' E 010°14'0 0.0
2016-Apr-28 16:34N 43°52' E 010°14'4 4.5
2016-Apr-28 15:34N 43°52' E 010°08'1211.9
2016-Apr-28 14:33N 43°54' E 009°52'1211.6
2016-Apr-28 13:33N 43°57' E 009°36'1211.5
2016-Apr-28 12:33N 44°04' E 009°23'1111.3
2016-Apr-28 11:33N 44°10' E 009°10'1111.3
2016-Apr-28 10:33N 44°19' E 008°60'6 6.4
2016-Apr-28 09:33N 44°24' E 008°55'0 0.2
2016-Apr-28 08:28N 44°25' E 008°55'0 0.0
2016-Apr-28 07:28N 44°25' E 008°55'0 0.0
2016-Apr-28 06:31N 44°25' E 008°55'0 0.0
2016-Apr-28 05:31N 44°25' E 008°55'0 0.0
2016-Apr-28 04:31N 44°25' E 008°55'0 0.0
2016-Apr-28 03:28N 44°25' E 008°55'0 0.0
2016-Apr-28 02:28N 44°25' E 008°55'0 0.0
2016-Apr-28 01:31N 44°25' E 008°55'0 0.0
2016-Apr-28 00:25N 44°25' E 008°55'0 0.0
2016-Apr-27 23:31N 44°25' E 008°55'0 0.0
2016-Apr-27 22:25N 44°25' E 008°55'0 0.0
2016-Apr-27 21:28N 44°25' E 008°55'0 0.0
2016-Apr-27 20:28N 44°25' E 008°55'0 0.0
2016-Apr-27 19:31N 44°25' E 008°55'0 0.0
2016-Apr-27 18:31N 44°25' E 008°55'0 0.0
2016-Apr-27 17:31N 44°25' E 008°55'0 0.0
2016-Apr-27 16:28N 44°25' E 008°55'0 0.0
2016-Apr-27 15:22N 44°25' E 008°55'0 0.0
2016-Apr-27 14:28N 44°25' E 008°55'0 0.0
2016-Apr-27 13:16N 44°25' E 008°55'0 0.0
2016-Apr-27 12:28N 44°25' E 008°55'0 0.0
2016-Apr-27 11:28N 44°25' E 008°55'0 0.0
2016-Apr-27 10:28N 44°25' E 008°55'0 0.0
2016-Apr-27 09:28N 44°25' E 008°55'0 0.0
2016-Apr-27 08:28N 44°25' E 008°55'0 0.0
2016-Apr-27 07:22N 44°25' E 008°55'0 0.0
2016-Apr-27 06:28N 44°25' E 008°55'0 0.0
2016-Apr-27 05:28N 44°25' E 008°55'0 0.0
2016-Apr-27 04:28N 44°25' E 008°55'0 0.0
2016-Apr-27 03:31N 44°25' E 008°55'0 0.0
2016-Apr-27 02:31N 44°25' E 008°55'0 0.0
2016-Apr-27 01:19N 44°25' E 008°55'0 0.0
2016-Apr-27 00:07N 44°25' E 008°55'0 0.0
2016-Apr-26 23:28N 44°25' E 008°55'0 0.0
2016-Apr-26 22:25N 44°25' E 008°55'0 0.0
2016-Apr-26 21:31N 44°25' E 008°55'0 0.0
2016-Apr-26 20:25N 44°25' E 008°55'0 0.0
2016-Apr-26 19:28N 44°25' E 008°55'0 0.0
2016-Apr-26 18:28N 44°25' E 008°55'0 0.0
2016-Apr-26 16:31N 44°25' E 008°55'0 0.0
2016-Apr-26 15:31N 44°25' E 008°55'0 0.0
2016-Apr-26 14:31N 44°25' E 008°55'0 0.0
2016-Apr-26 13:31N 44°25' E 008°55'0 0.0
2016-Apr-26 12:28N 44°25' E 008°55'0 0.0
2016-Apr-26 11:25N 44°25' E 008°55'0 0.0
2016-Apr-26 10:31N 44°25' E 008°55'0 0.0
2016-Apr-26 09:19N 44°25' E 008°55'0 0.0
2016-Apr-26 08:28N 44°25' E 008°55'0 0.0
2016-Apr-26 07:28N 44°25' E 008°55'0 0.0
2016-Apr-26 06:28N 44°25' E 008°55'0 0.0
2016-Apr-26 05:31N 44°25' E 008°55'0 0.0
2016-Apr-26 04:25N 44°25' E 008°55'0 0.0
2016-Apr-26 03:31N 44°25' E 008°55'0 0.0
2016-Apr-26 02:22N 44°25' E 008°55'0 0.0
2016-Apr-26 01:28N 44°25' E 008°55'0 0.0
2016-Apr-26 00:22N 44°25' E 008°55'0 0.0
2016-Apr-25 23:19N 44°25' E 008°55'0 0.0
2016-Apr-25 22:25N 44°25' E 008°55'0 0.0
2016-Apr-25 21:13N 44°25' E 008°55'0 0.0
2016-Apr-25 20:22N 44°25' E 008°55'0 0.0
2016-Apr-25 19:10N 44°25' E 008°55'0 0.0
2016-Apr-25 18:31N 44°25' E 008°55'0 0.0
2016-Apr-25 17:25N 44°25' E 008°55'0 0.0
2016-Apr-25 16:31N 44°25' E 008°55'0 0.0
2016-Apr-25 15:25N 44°25' E 008°55'0 0.0
2016-Apr-25 14:13N 44°25' E 008°55'0 0.0
2016-Apr-25 13:28N 44°25' E 008°55'0 0.0
2016-Apr-25 12:31N 44°25' E 008°55'0 0.0
2016-Apr-25 11:31N 44°25' E 008°55'0 0.0
2016-Apr-25 10:25N 44°25' E 008°55'0 0.0
2016-Apr-25 09:13N 44°25' E 008°55'0 0.0
2016-Apr-25 08:16N 44°25' E 008°55'0 0.0
2016-Apr-25 07:22N 44°25' E 008°55'0 0.0
2016-Apr-25 06:22N 44°25' E 008°55'0 0.0
2016-Apr-25 05:31N 44°25' E 008°55'0 0.0
2016-Apr-25 04:19N 44°25' E 008°55'0 0.0
2016-Apr-25 03:25N 44°25' E 008°55'0 0.0
2016-Apr-25 02:28N 44°25' E 008°55'0 0.0
2016-Apr-25 01:28N 44°25' E 008°55'0 0.0
2016-Apr-25 00:28N 44°25' E 008°55'0 0.0
2016-Apr-24 23:31N 44°25' E 008°55'0 0.0
2016-Apr-24 22:25N 44°25' E 008°55'0 0.0
2016-Apr-24 21:19N 44°25' E 008°55'0 0.0
2016-Apr-24 20:28N 44°25' E 008°55'0 0.0
2016-Apr-24 19:28N 44°25' E 008°55'0 0.0
2016-Apr-24 18:31N 44°25' E 008°55'0 0.0
2016-Apr-24 17:28N 44°25' E 008°55'0 0.0
2016-Apr-24 16:28N 44°25' E 008°55'0 0.0
2016-Apr-24 15:28N 44°25' E 008°55'0 0.0
2016-Apr-24 14:22N 44°25' E 008°55'0 0.0
2016-Apr-24 13:28N 44°25' E 008°55'0 0.0
2016-Apr-24 12:28N 44°25' E 008°55'0 0.0
2016-Apr-24 11:28N 44°25' E 008°55'0 0.0
2016-Apr-24 10:28N 44°25' E 008°55'0 0.0
2016-Apr-24 09:28N 44°25' E 008°55'0 0.0
2016-Apr-24 08:28N 44°25' E 008°55'0 0.0
2016-Apr-24 07:28N 44°25' E 008°55'0 0.0
2016-Apr-24 06:28N 44°25' E 008°55'0 0.0
2016-Apr-24 04:28N 44°25' E 008°55'0 0.0
2016-Apr-24 03:28N 44°25' E 008°55'0 0.0
2016-Apr-24 02:28N 44°25' E 008°55'0 0.0
2016-Apr-24 01:31N 44°25' E 008°55'0 0.0
2016-Apr-24 00:31N 44°25' E 008°55'0 0.0
2016-Apr-23 23:25N 44°25' E 008°55'0 0.0
2016-Apr-23 22:28N 44°25' E 008°55'0 0.0
2016-Apr-23 21:28N 44°25' E 008°55'0 0.0
2016-Apr-23 20:31N 44°25' E 008°55'0 0.0
2016-Apr-23 19:31N 44°25' E 008°55'0 0.0
2016-Apr-23 18:31N 44°25' E 008°55'0 0.0
2016-Apr-23 17:22N 44°25' E 008°55'0 0.0
2016-Apr-23 16:28N 44°25' E 008°55'0 0.0
2016-Apr-23 15:16N 44°25' E 008°55'0 0.0
2016-Apr-23 14:28N 44°25' E 008°55'0 0.0
2016-Apr-23 13:22N 44°25' E 008°55'0 0.0
2016-Apr-23 12:28N 44°25' E 008°55'0 0.0
2016-Apr-23 11:28N 44°25' E 008°55'0 0.0
2016-Apr-23 10:22N 44°25' E 008°55'0 0.0
2016-Apr-23 09:28N 44°25' E 008°55'0 0.0
2016-Apr-23 08:28N 44°25' E 008°55'0 0.0
2016-Apr-23 07:22N 44°25' E 008°55'0 0.0
2016-Apr-23 06:22N 44°25' E 008°55'0 0.0
2016-Apr-23 04:28N 44°25' E 008°55'0 0.0
2016-Apr-23 03:22N 44°25' E 008°55'  

Dump ship's entire track history